sensor_id;sensor_type;location;lat;lon;timestamp;P1;durP1;ratioP1;P2;durP2;ratioP2
16979;SDS011;42288;52.182;21.156;2023-07-20T00:02:20;7.40;;;2.17;;
16979;SDS011;42288;52.182;21.156;2023-07-20T00:04:45;3.37;;;2.20;;
16979;SDS011;42288;52.182;21.156;2023-07-20T00:07:11;3.53;;;1.90;;
16979;SDS011;42288;52.182;21.156;2023-07-20T00:09:36;3.73;;;2.13;;
16979;SDS011;42288;52.182;21.156;2023-07-20T00:12:02;5.30;;;2.33;;
16979;SDS011;42288;52.182;21.156;2023-07-20T00:14:28;8.23;;;2.10;;
16979;SDS011;42288;52.182;21.156;2023-07-20T00:16:54;4.30;;;2.03;;
16979;SDS011;42288;52.182;21.156;2023-07-20T00:19:24;5.73;;;2.40;;
16979;SDS011;42288;52.182;21.156;2023-07-20T00:21:51;6.57;;;2.67;;
16979;SDS011;42288;52.182;21.156;2023-07-20T00:24:17;3.37;;;2.10;;
16979;SDS011;42288;52.182;21.156;2023-07-20T00:26:43;3.97;;;2.20;;
16979;SDS011;42288;52.182;21.156;2023-07-20T00:29:09;7.33;;;2.37;;
16979;SDS011;42288;52.182;21.156;2023-07-20T00:31:35;6.33;;;2.47;;
16979;SDS011;42288;52.182;21.156;2023-07-20T00:34:02;11.33;;;2.20;;
16979;SDS011;42288;52.182;21.156;2023-07-20T00:36:28;6.00;;;2.83;;
16979;SDS011;42288;52.182;21.156;2023-07-20T00:38:54;9.20;;;2.73;;
16979;SDS011;42288;52.182;21.156;2023-07-20T00:41:19;5.77;;;1.97;;
16979;SDS011;42288;52.182;21.156;2023-07-20T00:43:45;7.03;;;2.47;;
16979;SDS011;42288;52.182;21.156;2023-07-20T00:46:11;7.77;;;2.40;;
16979;SDS011;42288;52.182;21.156;2023-07-20T00:48:37;4.17;;;2.27;;
16979;SDS011;42288;52.182;21.156;2023-07-20T00:51:03;8.23;;;2.73;;
16979;SDS011;42288;52.182;21.156;2023-07-20T00:53:29;5.07;;;2.80;;
16979;SDS011;42288;52.182;21.156;2023-07-20T00:55:55;4.97;;;2.30;;
16979;SDS011;42288;52.182;21.156;2023-07-20T00:58:21;6.30;;;2.63;;
16979;SDS011;42288;52.182;21.156;2023-07-20T01:00:47;4.20;;;2.40;;
16979;SDS011;42288;52.182;21.156;2023-07-20T01:03:13;4.47;;;2.20;;
16979;SDS011;42288;52.182;21.156;2023-07-20T01:05:46;3.53;;;2.10;;
16979;SDS011;42288;52.182;21.156;2023-07-20T01:08:24;4.07;;;2.57;;
16979;SDS011;42288;52.182;21.156;2023-07-20T01:11:07;3.13;;;2.00;;
16979;SDS011;42288;52.182;21.156;2023-07-20T01:13:42;3.73;;;2.17;;
16979;SDS011;42288;52.182;21.156;2023-07-20T01:16:09;4.33;;;2.10;;
16979;SDS011;42288;52.182;21.156;2023-07-20T01:18:34;4.67;;;2.57;;
16979;SDS011;42288;52.182;21.156;2023-07-20T01:21:03;3.57;;;2.30;;
16979;SDS011;42288;52.182;21.156;2023-07-20T01:23:46;4.77;;;2.33;;
16979;SDS011;42288;52.182;21.156;2023-07-20T01:32:13;7.20;;;2.20;;
16979;SDS011;42288;52.182;21.156;2023-07-20T01:34:42;3.47;;;2.40;;
16979;SDS011;42288;52.182;21.156;2023-07-20T01:37:09;7.73;;;2.17;;
16979;SDS011;42288;52.182;21.156;2023-07-20T01:39:35;4.63;;;2.30;;
16979;SDS011;42288;52.182;21.156;2023-07-20T01:42:02;2.77;;;1.97;;
16979;SDS011;42288;52.182;21.156;2023-07-20T01:44:28;3.23;;;2.20;;
16979;SDS011;42288;52.182;21.156;2023-07-20T01:46:54;5.07;;;2.60;;
16979;SDS011;42288;52.182;21.156;2023-07-20T01:49:19;7.70;;;2.73;;
16979;SDS011;42288;52.182;21.156;2023-07-20T01:51:45;5.47;;;2.40;;
16979;SDS011;42288;52.182;21.156;2023-07-20T01:54:10;3.30;;;2.57;;
16979;SDS011;42288;52.182;21.156;2023-07-20T01:56:36;4.97;;;2.50;;
16979;SDS011;42288;52.182;21.156;2023-07-20T01:59:01;4.30;;;2.60;;
16979;SDS011;42288;52.182;21.156;2023-07-20T02:01:27;3.90;;;2.30;;
16979;SDS011;42288;52.182;21.156;2023-07-20T02:03:53;3.53;;;2.40;;
16979;SDS011;42288;52.182;21.156;2023-07-20T02:06:19;3.50;;;2.30;;
16979;SDS011;42288;52.182;21.156;2023-07-20T02:08:45;4.73;;;2.30;;
16979;SDS011;42288;52.182;21.156;2023-07-20T02:11:10;6.20;;;2.70;;
16979;SDS011;42288;52.182;21.156;2023-07-20T02:13:36;3.10;;;2.10;;
16979;SDS011;42288;52.182;21.156;2023-07-20T02:16:02;5.80;;;2.80;;
16979;SDS011;42288;52.182;21.156;2023-07-20T02:18:27;3.30;;;2.37;;
16979;SDS011;42288;52.182;21.156;2023-07-20T02:20:53;4.17;;;2.50;;
16979;SDS011;42288;52.182;21.156;2023-07-20T02:23:19;4.17;;;2.37;;
16979;SDS011;42288;52.182;21.156;2023-07-20T02:25:44;3.67;;;2.17;;
16979;SDS011;42288;52.182;21.156;2023-07-20T02:28:12;4.10;;;2.10;;
16979;SDS011;42288;52.182;21.156;2023-07-20T02:30:38;3.30;;;2.70;;
16979;SDS011;42288;52.182;21.156;2023-07-20T02:33:04;4.37;;;2.30;;
16979;SDS011;42288;52.182;21.156;2023-07-20T02:35:31;4.07;;;2.27;;
16979;SDS011;42288;52.182;21.156;2023-07-20T02:37:57;6.97;;;2.33;;
16979;SDS011;42288;52.182;21.156;2023-07-20T02:40:23;3.93;;;2.20;;
16979;SDS011;42288;52.182;21.156;2023-07-20T02:42:48;4.87;;;2.50;;
16979;SDS011;42288;52.182;21.156;2023-07-20T02:45:14;4.33;;;2.73;;
16979;SDS011;42288;52.182;21.156;2023-07-20T02:47:40;3.10;;;2.37;;
16979;SDS011;42288;52.182;21.156;2023-07-20T02:50:06;3.67;;;2.47;;
16979;SDS011;42288;52.182;21.156;2023-07-20T02:52:33;5.93;;;2.37;;
16979;SDS011;42288;52.182;21.156;2023-07-20T02:54:58;5.67;;;2.80;;
16979;SDS011;42288;52.182;21.156;2023-07-20T02:57:24;5.97;;;2.70;;
16979;SDS011;42288;52.182;21.156;2023-07-20T02:59:50;6.23;;;2.70;;
16979;SDS011;42288;52.182;21.156;2023-07-20T03:02:15;4.37;;;2.43;;
16979;SDS011;42288;52.182;21.156;2023-07-20T03:04:41;3.27;;;2.60;;
16979;SDS011;42288;52.182;21.156;2023-07-20T03:07:07;4.83;;;2.60;;
16979;SDS011;42288;52.182;21.156;2023-07-20T03:09:32;6.33;;;3.00;;
16979;SDS011;42288;52.182;21.156;2023-07-20T03:11:58;5.63;;;2.90;;
16979;SDS011;42288;52.182;21.156;2023-07-20T03:14:24;4.83;;;2.47;;
16979;SDS011;42288;52.182;21.156;2023-07-20T03:16:49;7.23;;;3.13;;
16979;SDS011;42288;52.182;21.156;2023-07-20T03:19:15;8.30;;;3.13;;
16979;SDS011;42288;52.182;21.156;2023-07-20T03:21:41;5.73;;;3.20;;
16979;SDS011;42288;52.182;21.156;2023-07-20T03:24:07;5.50;;;3.03;;
16979;SDS011;42288;52.182;21.156;2023-07-20T03:26:33;4.47;;;2.80;;
16979;SDS011;42288;52.182;21.156;2023-07-20T03:29:00;5.83;;;2.97;;
16979;SDS011;42288;52.182;21.156;2023-07-20T03:31:25;5.37;;;2.67;;
16979;SDS011;42288;52.182;21.156;2023-07-20T03:33:51;6.03;;;2.70;;
16979;SDS011;42288;52.182;21.156;2023-07-20T03:36:17;7.07;;;3.23;;
16979;SDS011;42288;52.182;21.156;2023-07-20T03:38:42;6.23;;;3.07;;
16979;SDS011;42288;52.182;21.156;2023-07-20T03:41:08;7.40;;;3.07;;
16979;SDS011;42288;52.182;21.156;2023-07-20T03:43:34;4.73;;;2.80;;
16979;SDS011;42288;52.182;21.156;2023-07-20T03:46:00;5.87;;;3.20;;
16979;SDS011;42288;52.182;21.156;2023-07-20T03:48:25;6.33;;;2.90;;
16979;SDS011;42288;52.182;21.156;2023-07-20T03:50:51;5.13;;;3.00;;
16979;SDS011;42288;52.182;21.156;2023-07-20T03:53:18;7.60;;;3.70;;
16979;SDS011;42288;52.182;21.156;2023-07-20T03:55:44;6.33;;;3.00;;
16979;SDS011;42288;52.182;21.156;2023-07-20T03:58:11;5.23;;;2.83;;
16979;SDS011;42288;52.182;21.156;2023-07-20T04:00:38;8.80;;;2.93;;
16979;SDS011;42288;52.182;21.156;2023-07-20T04:03:04;5.50;;;3.33;;
16979;SDS011;42288;52.182;21.156;2023-07-20T04:05:29;7.90;;;3.30;;
16979;SDS011;42288;52.182;21.156;2023-07-20T04:07:55;6.03;;;3.20;;
16979;SDS011;42288;52.182;21.156;2023-07-20T04:10:20;9.67;;;3.30;;
16979;SDS011;42288;52.182;21.156;2023-07-20T04:12:46;6.63;;;3.20;;
16979;SDS011;42288;52.182;21.156;2023-07-20T04:15:12;7.27;;;2.93;;
16979;SDS011;42288;52.182;21.156;2023-07-20T04:17:38;7.80;;;3.23;;
16979;SDS011;42288;52.182;21.156;2023-07-20T04:20:04;6.67;;;3.00;;
16979;SDS011;42288;52.182;21.156;2023-07-20T04:22:31;6.97;;;3.57;;
16979;SDS011;42288;52.182;21.156;2023-07-20T04:24:56;6.27;;;3.20;;
16979;SDS011;42288;52.182;21.156;2023-07-20T04:27:22;6.40;;;3.47;;
16979;SDS011;42288;52.182;21.156;2023-07-20T04:29:47;8.30;;;3.20;;
16979;SDS011;42288;52.182;21.156;2023-07-20T04:32:13;12.17;;;3.30;;
16979;SDS011;42288;52.182;21.156;2023-07-20T04:34:38;10.03;;;3.30;;
16979;SDS011;42288;52.182;21.156;2023-07-20T04:37:04;4.97;;;3.00;;
16979;SDS011;42288;52.182;21.156;2023-07-20T04:39:30;7.27;;;3.40;;
16979;SDS011;42288;52.182;21.156;2023-07-20T04:41:56;4.20;;;3.13;;
16979;SDS011;42288;52.182;21.156;2023-07-20T04:44:22;6.77;;;3.30;;
16979;SDS011;42288;52.182;21.156;2023-07-20T04:46:47;7.77;;;3.50;;
16979;SDS011;42288;52.182;21.156;2023-07-20T04:49:13;6.07;;;3.20;;
16979;SDS011;42288;52.182;21.156;2023-07-20T04:51:39;6.10;;;3.57;;
16979;SDS011;42288;52.182;21.156;2023-07-20T04:54:04;5.47;;;2.87;;
16979;SDS011;42288;52.182;21.156;2023-07-20T04:56:30;10.47;;;3.50;;
16979;SDS011;42288;52.182;21.156;2023-07-20T04:58:56;8.67;;;3.30;;
16979;SDS011;42288;52.182;21.156;2023-07-20T05:01:22;7.47;;;3.77;;
16979;SDS011;42288;52.182;21.156;2023-07-20T05:03:48;6.93;;;3.30;;
16979;SDS011;42288;52.182;21.156;2023-07-20T05:06:14;6.20;;;3.53;;
16979;SDS011;42288;52.182;21.156;2023-07-20T05:08:40;7.83;;;3.40;;
16979;SDS011;42288;52.182;21.156;2023-07-20T05:11:05;6.07;;;3.87;;
16979;SDS011;42288;52.182;21.156;2023-07-20T05:13:32;5.40;;;3.67;;
16979;SDS011;42288;52.182;21.156;2023-07-20T05:15:58;5.90;;;3.53;;
16979;SDS011;42288;52.182;21.156;2023-07-20T05:18:23;9.83;;;4.10;;
16979;SDS011;42288;52.182;21.156;2023-07-20T05:20:50;7.33;;;4.20;;
16979;SDS011;42288;52.182;21.156;2023-07-20T05:23:16;7.60;;;4.07;;
16979;SDS011;42288;52.182;21.156;2023-07-20T05:25:43;8.73;;;4.00;;
16979;SDS011;42288;52.182;21.156;2023-07-20T05:28:09;7.13;;;3.50;;
16979;SDS011;42288;52.182;21.156;2023-07-20T05:30:34;6.43;;;3.90;;
16979;SDS011;42288;52.182;21.156;2023-07-20T05:33:00;5.67;;;3.70;;
16979;SDS011;42288;52.182;21.156;2023-07-20T05:35:26;6.53;;;3.67;;
16979;SDS011;42288;52.182;21.156;2023-07-20T05:37:52;4.43;;;3.17;;
16979;SDS011;42288;52.182;21.156;2023-07-20T05:40:17;6.57;;;3.50;;
16979;SDS011;42288;52.182;21.156;2023-07-20T05:42:44;6.73;;;4.10;;
16979;SDS011;42288;52.182;21.156;2023-07-20T05:45:11;6.80;;;3.73;;
16979;SDS011;42288;52.182;21.156;2023-07-20T05:47:37;7.23;;;4.20;;
16979;SDS011;42288;52.182;21.156;2023-07-20T05:50:03;5.90;;;4.07;;
16979;SDS011;42288;52.182;21.156;2023-07-20T05:52:29;11.43;;;3.67;;
16979;SDS011;42288;52.182;21.156;2023-07-20T05:54:54;7.73;;;3.97;;
16979;SDS011;42288;52.182;21.156;2023-07-20T05:57:20;7.47;;;3.57;;
16979;SDS011;42288;52.182;21.156;2023-07-20T05:59:46;6.93;;;3.97;;
16979;SDS011;42288;52.182;21.156;2023-07-20T06:02:11;9.90;;;4.27;;
16979;SDS011;42288;52.182;21.156;2023-07-20T06:04:38;5.00;;;4.13;;
16979;SDS011;42288;52.182;21.156;2023-07-20T06:07:04;8.17;;;4.10;;
16979;SDS011;42288;52.182;21.156;2023-07-20T06:09:30;7.87;;;4.50;;
16979;SDS011;42288;52.182;21.156;2023-07-20T06:11:56;8.37;;;4.00;;
16979;SDS011;42288;52.182;21.156;2023-07-20T06:14:21;6.57;;;4.17;;
16979;SDS011;42288;52.182;21.156;2023-07-20T06:16:47;9.17;;;3.97;;
16979;SDS011;42288;52.182;21.156;2023-07-20T06:19:12;6.70;;;3.57;;
16979;SDS011;42288;52.182;21.156;2023-07-20T06:21:38;9.40;;;4.00;;
16979;SDS011;42288;52.182;21.156;2023-07-20T06:24:04;6.60;;;3.80;;
16979;SDS011;42288;52.182;21.156;2023-07-20T06:26:30;8.27;;;4.23;;
16979;SDS011;42288;52.182;21.156;2023-07-20T06:28:56;6.50;;;4.10;;
16979;SDS011;42288;52.182;21.156;2023-07-20T06:31:22;7.47;;;4.43;;
16979;SDS011;42288;52.182;21.156;2023-07-20T06:33:47;7.97;;;4.30;;
16979;SDS011;42288;52.182;21.156;2023-07-20T06:36:13;6.63;;;4.20;;
16979;SDS011;42288;52.182;21.156;2023-07-20T06:38:41;9.40;;;4.20;;
16979;SDS011;42288;52.182;21.156;2023-07-20T06:41:06;6.47;;;4.30;;
16979;SDS011;42288;52.182;21.156;2023-07-20T06:43:32;8.33;;;4.70;;
16979;SDS011;42288;52.182;21.156;2023-07-20T06:45:57;8.63;;;4.17;;
16979;SDS011;42288;52.182;21.156;2023-07-20T06:48:23;8.47;;;3.80;;
16979;SDS011;42288;52.182;21.156;2023-07-20T06:50:48;9.60;;;4.70;;
16979;SDS011;42288;52.182;21.156;2023-07-20T06:53:14;9.23;;;4.93;;
16979;SDS011;42288;52.182;21.156;2023-07-20T06:55:41;6.73;;;4.30;;
16979;SDS011;42288;52.182;21.156;2023-07-20T06:58:07;12.47;;;4.87;;
16979;SDS011;42288;52.182;21.156;2023-07-20T07:00:33;11.03;;;4.90;;
16979;SDS011;42288;52.182;21.156;2023-07-20T07:02:58;8.37;;;5.07;;
16979;SDS011;42288;52.182;21.156;2023-07-20T07:05:24;9.20;;;5.27;;
16979;SDS011;42288;52.182;21.156;2023-07-20T07:07:49;10.87;;;5.83;;
16979;SDS011;42288;52.182;21.156;2023-07-20T07:10:15;11.73;;;5.17;;
16979;SDS011;42288;52.182;21.156;2023-07-20T07:12:41;9.57;;;4.83;;
16979;SDS011;42288;52.182;21.156;2023-07-20T07:15:06;9.07;;;5.00;;
16979;SDS011;42288;52.182;21.156;2023-07-20T07:17:32;8.20;;;4.93;;
16979;SDS011;42288;52.182;21.156;2023-07-20T07:19:58;7.83;;;4.90;;
16979;SDS011;42288;52.182;21.156;2023-07-20T07:22:24;9.00;;;4.87;;
16979;SDS011;42288;52.182;21.156;2023-07-20T07:24:50;7.33;;;4.50;;
16979;SDS011;42288;52.182;21.156;2023-07-20T07:27:16;7.47;;;4.53;;
16979;SDS011;42288;52.182;21.156;2023-07-20T07:29:42;9.17;;;4.90;;
16979;SDS011;42288;52.182;21.156;2023-07-20T07:32:10;8.30;;;4.83;;
16979;SDS011;42288;52.182;21.156;2023-07-20T07:34:36;9.13;;;4.50;;
16979;SDS011;42288;52.182;21.156;2023-07-20T07:37:02;9.33;;;4.90;;
16979;SDS011;42288;52.182;21.156;2023-07-20T07:39:28;10.50;;;4.83;;
16979;SDS011;42288;52.182;21.156;2023-07-20T07:41:55;8.47;;;4.20;;
16979;SDS011;42288;52.182;21.156;2023-07-20T07:44:21;4.80;;;3.90;;
16979;SDS011;42288;52.182;21.156;2023-07-20T07:46:46;7.87;;;4.37;;
16979;SDS011;42288;52.182;21.156;2023-07-20T07:49:12;9.67;;;5.00;;
16979;SDS011;42288;52.182;21.156;2023-07-20T07:51:37;7.40;;;4.80;;
16979;SDS011;42288;52.182;21.156;2023-07-20T07:54:03;9.03;;;4.30;;
16979;SDS011;42288;52.182;21.156;2023-07-20T07:56:29;5.10;;;3.50;;
16979;SDS011;42288;52.182;21.156;2023-07-20T07:58:55;9.73;;;4.30;;
16979;SDS011;42288;52.182;21.156;2023-07-20T08:01:20;6.90;;;4.17;;
16979;SDS011;42288;52.182;21.156;2023-07-20T08:03:47;6.43;;;3.87;;
16979;SDS011;42288;52.182;21.156;2023-07-20T08:06:13;8.77;;;4.50;;
16979;SDS011;42288;52.182;21.156;2023-07-20T08:08:39;4.80;;;3.87;;
16979;SDS011;42288;52.182;21.156;2023-07-20T08:11:04;7.77;;;4.07;;
16979;SDS011;42288;52.182;21.156;2023-07-20T08:13:30;9.73;;;4.37;;
16979;SDS011;42288;52.182;21.156;2023-07-20T08:15:57;6.23;;;4.00;;
16979;SDS011;42288;52.182;21.156;2023-07-20T08:18:22;8.00;;;4.60;;
16979;SDS011;42288;52.182;21.156;2023-07-20T08:20:48;7.77;;;4.20;;
16979;SDS011;42288;52.182;21.156;2023-07-20T08:23:14;9.87;;;4.10;;
16979;SDS011;42288;52.182;21.156;2023-07-20T08:25:40;5.37;;;3.87;;
16979;SDS011;42288;52.182;21.156;2023-07-20T08:28:09;7.57;;;4.33;;
16979;SDS011;42288;52.182;21.156;2023-07-20T08:30:46;5.77;;;4.30;;
16979;SDS011;42288;52.182;21.156;2023-07-20T08:33:13;7.57;;;3.67;;
16979;SDS011;42288;52.182;21.156;2023-07-20T08:35:40;11.43;;;5.10;;
16979;SDS011;42288;52.182;21.156;2023-07-20T08:38:06;8.30;;;4.90;;
16979;SDS011;42288;52.182;21.156;2023-07-20T08:40:32;9.53;;;4.70;;
16979;SDS011;42288;52.182;21.156;2023-07-20T08:42:59;8.97;;;4.90;;
16979;SDS011;42288;52.182;21.156;2023-07-20T08:45:28;7.73;;;4.90;;
16979;SDS011;42288;52.182;21.156;2023-07-20T08:47:55;8.97;;;5.13;;
16979;SDS011;42288;52.182;21.156;2023-07-20T08:50:23;7.67;;;4.97;;
16979;SDS011;42288;52.182;21.156;2023-07-20T08:52:51;8.67;;;5.13;;
16979;SDS011;42288;52.182;21.156;2023-07-20T08:55:19;7.97;;;5.10;;
16979;SDS011;42288;52.182;21.156;2023-07-20T08:57:47;5.50;;;4.23;;
16979;SDS011;42288;52.182;21.156;2023-07-20T09:00:15;8.67;;;5.17;;
16979;SDS011;42288;52.182;21.156;2023-07-20T09:02:45;10.73;;;5.30;;
16979;SDS011;42288;52.182;21.156;2023-07-20T09:05:11;9.27;;;5.00;;
16979;SDS011;42288;52.182;21.156;2023-07-20T09:07:40;9.10;;;5.23;;
16979;SDS011;42288;52.182;21.156;2023-07-20T09:10:06;8.50;;;5.13;;
16979;SDS011;42288;52.182;21.156;2023-07-20T09:12:39;6.63;;;4.23;;
16979;SDS011;42288;52.182;21.156;2023-07-20T09:15:06;8.43;;;4.37;;
16979;SDS011;42288;52.182;21.156;2023-07-20T09:17:32;8.27;;;4.90;;
16979;SDS011;42288;52.182;21.156;2023-07-20T09:19:58;8.67;;;4.73;;
16979;SDS011;42288;52.182;21.156;2023-07-20T09:22:30;9.47;;;4.80;;
16979;SDS011;42288;52.182;21.156;2023-07-20T09:24:57;9.70;;;4.70;;
16979;SDS011;42288;52.182;21.156;2023-07-20T09:27:29;7.10;;;4.20;;
16979;SDS011;42288;52.182;21.156;2023-07-20T09:30:01;6.33;;;4.30;;
16979;SDS011;42288;52.182;21.156;2023-07-20T09:32:27;6.90;;;4.30;;
16979;SDS011;42288;52.182;21.156;2023-07-20T09:34:52;9.97;;;5.03;;
16979;SDS011;42288;52.182;21.156;2023-07-20T09:37:21;8.47;;;4.50;;
16979;SDS011;42288;52.182;21.156;2023-07-20T09:39:48;8.53;;;5.27;;
16979;SDS011;42288;52.182;21.156;2023-07-20T09:42:16;5.93;;;4.43;;
16979;SDS011;42288;52.182;21.156;2023-07-20T09:44:45;6.40;;;4.77;;
16979;SDS011;42288;52.182;21.156;2023-07-20T09:47:10;8.70;;;4.83;;
16979;SDS011;42288;52.182;21.156;2023-07-20T09:49:39;8.57;;;4.83;;
16979;SDS011;42288;52.182;21.156;2023-07-20T09:52:06;7.07;;;4.33;;
16979;SDS011;42288;52.182;21.156;2023-07-20T09:54:33;7.67;;;4.50;;
16979;SDS011;42288;52.182;21.156;2023-07-20T09:57:00;8.37;;;4.63;;
16979;SDS011;42288;52.182;21.156;2023-07-20T09:59:27;5.63;;;4.03;;
16979;SDS011;42288;52.182;21.156;2023-07-20T10:01:53;6.87;;;3.73;;
16979;SDS011;42288;52.182;21.156;2023-07-20T10:04:23;5.63;;;3.50;;
16979;SDS011;42288;52.182;21.156;2023-07-20T10:06:49;6.17;;;3.00;;
16979;SDS011;42288;52.182;21.156;2023-07-20T10:09:19;4.80;;;3.33;;
16979;SDS011;42288;52.182;21.156;2023-07-20T10:11:49;8.13;;;3.00;;
16979;SDS011;42288;52.182;21.156;2023-07-20T10:14:24;4.60;;;2.73;;
16979;SDS011;42288;52.182;21.156;2023-07-20T10:16:57;6.97;;;2.60;;
16979;SDS011;42288;52.182;21.156;2023-07-20T10:22:16;5.03;;;3.10;;
16979;SDS011;42288;52.182;21.156;2023-07-20T10:24:46;6.40;;;3.33;;
16979;SDS011;42288;52.182;21.156;2023-07-20T10:27:15;3.90;;;3.00;;
16979;SDS011;42288;52.182;21.156;2023-07-20T10:29:41;4.97;;;2.70;;
16979;SDS011;42288;52.182;21.156;2023-07-20T10:32:08;5.20;;;2.50;;
16979;SDS011;42288;52.182;21.156;2023-07-20T10:34:34;5.70;;;2.67;;
16979;SDS011;42288;52.182;21.156;2023-07-20T10:37:00;3.67;;;2.30;;
16979;SDS011;42288;52.182;21.156;2023-07-20T10:39:30;9.10;;;2.90;;
16979;SDS011;42288;52.182;21.156;2023-07-20T10:42:03;4.53;;;2.57;;
16979;SDS011;42288;52.182;21.156;2023-07-20T10:44:32;6.67;;;2.30;;
16979;SDS011;42288;52.182;21.156;2023-07-20T10:47:02;3.10;;;1.90;;
16979;SDS011;42288;52.182;21.156;2023-07-20T10:49:33;3.40;;;1.83;;
16979;SDS011;42288;52.182;21.156;2023-07-20T10:52:00;3.17;;;1.87;;
16979;SDS011;42288;52.182;21.156;2023-07-20T10:57:14;3.13;;;1.90;;
16979;SDS011;42288;52.182;21.156;2023-07-20T10:59:47;4.37;;;1.70;;
16979;SDS011;42288;52.182;21.156;2023-07-20T11:02:13;2.93;;;1.50;;
16979;SDS011;42288;52.182;21.156;2023-07-20T11:04:44;2.80;;;1.57;;
16979;SDS011;42288;52.182;21.156;2023-07-20T11:07:15;4.03;;;2.00;;
16979;SDS011;42288;52.182;21.156;2023-07-20T11:09:42;3.77;;;2.00;;
16979;SDS011;42288;52.182;21.156;2023-07-20T11:12:14;3.70;;;2.07;;
16979;SDS011;42288;52.182;21.156;2023-07-20T11:14:54;3.77;;;2.27;;
16979;SDS011;42288;52.182;21.156;2023-07-20T11:17:30;4.07;;;1.93;;
16979;SDS011;42288;52.182;21.156;2023-07-20T11:20:00;4.10;;;2.10;;
16979;SDS011;42288;52.182;21.156;2023-07-20T11:22:26;3.93;;;2.07;;
16979;SDS011;42288;52.182;21.156;2023-07-20T11:24:55;4.57;;;2.10;;
16979;SDS011;42288;52.182;21.156;2023-07-20T11:27:21;3.33;;;1.70;;
16979;SDS011;42288;52.182;21.156;2023-07-20T11:29:47;1.98;;;1.45;;
16979;SDS011;42288;52.182;21.156;2023-07-20T11:32:19;3.08;;;1.60;;
16979;SDS011;42288;52.182;21.156;2023-07-20T11:34:49;5.93;;;2.33;;
16979;SDS011;42288;52.182;21.156;2023-07-20T11:37:15;6.72;;;2.25;;
16979;SDS011;42288;52.182;21.156;2023-07-20T11:39:41;2.90;;;1.73;;
16979;SDS011;42288;52.182;21.156;2023-07-20T11:42:07;2.25;;;1.70;;
16979;SDS011;42288;52.182;21.156;2023-07-20T11:44:33;2.63;;;1.95;;
16979;SDS011;42288;52.182;21.156;2023-07-20T11:47:07;3.23;;;1.93;;
16979;SDS011;42288;52.182;21.156;2023-07-20T11:49:34;2.47;;;1.80;;
16979;SDS011;42288;52.182;21.156;2023-07-20T11:52:02;3.00;;;1.80;;
16979;SDS011;42288;52.182;21.156;2023-07-20T11:54:29;5.33;;;2.00;;
16979;SDS011;42288;52.182;21.156;2023-07-20T11:56:55;3.63;;;2.00;;
16979;SDS011;42288;52.182;21.156;2023-07-20T11:59:21;3.47;;;1.50;;
16979;SDS011;42288;52.182;21.156;2023-07-20T12:01:46;2.58;;;1.70;;
16979;SDS011;42288;52.182;21.156;2023-07-20T12:04:12;2.90;;;1.45;;
16979;SDS011;42288;52.182;21.156;2023-07-20T12:06:38;3.10;;;1.60;;
16979;SDS011;42288;52.182;21.156;2023-07-20T12:09:03;3.90;;;1.80;;
16979;SDS011;42288;52.182;21.156;2023-07-20T12:11:33;4.03;;;1.58;;
16979;SDS011;42288;52.182;21.156;2023-07-20T12:14:03;3.50;;;1.63;;
16979;SDS011;42288;52.182;21.156;2023-07-20T12:16:32;3.27;;;1.60;;
16979;SDS011;42288;52.182;21.156;2023-07-20T12:21:36;4.90;;;1.40;;
16979;SDS011;42288;52.182;21.156;2023-07-20T12:24:07;4.03;;;1.73;;
16979;SDS011;42288;52.182;21.156;2023-07-20T12:26:36;6.23;;;1.77;;
16979;SDS011;42288;52.182;21.156;2023-07-20T12:29:02;2.00;;;1.50;;
16979;SDS011;42288;52.182;21.156;2023-07-20T12:31:29;4.47;;;1.63;;
16979;SDS011;42288;52.182;21.156;2023-07-20T12:33:56;2.88;;;1.60;;
16979;SDS011;42288;52.182;21.156;2023-07-20T12:36:22;4.37;;;1.90;;
16979;SDS011;42288;52.182;21.156;2023-07-20T12:38:48;2.23;;;1.67;;
16979;SDS011;42288;52.182;21.156;2023-07-20T12:41:14;6.67;;;1.83;;
16979;SDS011;42288;52.182;21.156;2023-07-20T12:43:43;3.07;;;1.70;;
16979;SDS011;42288;52.182;21.156;2023-07-20T12:46:10;3.42;;;1.63;;
16979;SDS011;42288;52.182;21.156;2023-07-20T12:48:37;2.63;;;1.43;;
16979;SDS011;42288;52.182;21.156;2023-07-20T12:51:03;2.80;;;1.60;;
16979;SDS011;42288;52.182;21.156;2023-07-20T12:53:30;3.40;;;1.70;;
16979;SDS011;42288;52.182;21.156;2023-07-20T12:55:56;3.77;;;1.80;;
16979;SDS011;42288;52.182;21.156;2023-07-20T12:58:22;2.67;;;1.67;;
16979;SDS011;42288;52.182;21.156;2023-07-20T13:00:48;2.67;;;1.30;;
16979;SDS011;42288;52.182;21.156;2023-07-20T13:03:14;4.20;;;1.43;;
16979;SDS011;42288;52.182;21.156;2023-07-20T13:05:41;3.57;;;1.77;;
16979;SDS011;42288;52.182;21.156;2023-07-20T13:08:06;4.33;;;1.60;;
16979;SDS011;42288;52.182;21.156;2023-07-20T13:10:32;2.73;;;1.20;;
16979;SDS011;42288;52.182;21.156;2023-07-20T13:12:59;2.47;;;1.40;;
16979;SDS011;42288;52.182;21.156;2023-07-20T13:15:29;3.67;;;1.53;;
16979;SDS011;42288;52.182;21.156;2023-07-20T13:17:58;3.47;;;1.40;;
16979;SDS011;42288;52.182;21.156;2023-07-20T13:20:25;4.10;;;1.47;;
16979;SDS011;42288;52.182;21.156;2023-07-20T13:22:51;2.00;;;1.40;;
16979;SDS011;42288;52.182;21.156;2023-07-20T13:25:17;2.03;;;1.40;;
16979;SDS011;42288;52.182;21.156;2023-07-20T13:27:43;4.07;;;1.50;;
16979;SDS011;42288;52.182;21.156;2023-07-20T13:30:09;1.73;;;1.50;;
16979;SDS011;42288;52.182;21.156;2023-07-20T13:32:41;3.03;;;1.53;;
16979;SDS011;42288;52.182;21.156;2023-07-20T13:35:07;2.30;;;1.60;;
16979;SDS011;42288;52.182;21.156;2023-07-20T13:37:33;2.97;;;1.60;;
16979;SDS011;42288;52.182;21.156;2023-07-20T13:39:59;3.87;;;1.40;;
16979;SDS011;42288;52.182;21.156;2023-07-20T13:42:24;2.57;;;1.60;;
16979;SDS011;42288;52.182;21.156;2023-07-20T13:44:50;3.80;;;1.60;;
16979;SDS011;42288;52.182;21.156;2023-07-20T13:47:16;3.10;;;1.70;;
16979;SDS011;42288;52.182;21.156;2023-07-20T13:49:42;4.80;;;1.70;;
16979;SDS011;42288;52.182;21.156;2023-07-20T13:52:08;3.57;;;2.10;;
16979;SDS011;42288;52.182;21.156;2023-07-20T13:54:34;2.13;;;1.70;;
16979;SDS011;42288;52.182;21.156;2023-07-20T13:56:59;2.97;;;1.90;;
16979;SDS011;42288;52.182;21.156;2023-07-20T13:59:25;4.43;;;2.07;;
16979;SDS011;42288;52.182;21.156;2023-07-20T14:01:50;3.20;;;1.60;;
16979;SDS011;42288;52.182;21.156;2023-07-20T14:04:16;4.87;;;1.87;;
16979;SDS011;42288;52.182;21.156;2023-07-20T14:06:42;5.23;;;1.90;;
16979;SDS011;42288;52.182;21.156;2023-07-20T14:09:08;2.13;;;1.77;;
16979;SDS011;42288;52.182;21.156;2023-07-20T14:11:33;2.60;;;1.63;;
16979;SDS011;42288;52.182;21.156;2023-07-20T14:13:59;3.63;;;1.70;;
16979;SDS011;42288;52.182;21.156;2023-07-20T14:16:25;2.70;;;1.80;;
16979;SDS011;42288;52.182;21.156;2023-07-20T14:18:50;3.10;;;1.70;;
16979;SDS011;42288;52.182;21.156;2023-07-20T14:21:16;3.80;;;1.90;;
16979;SDS011;42288;52.182;21.156;2023-07-20T14:23:47;2.97;;;1.73;;
16979;SDS011;42288;52.182;21.156;2023-07-20T14:26:17;6.03;;;2.00;;
16979;SDS011;42288;52.182;21.156;2023-07-20T14:28:43;3.00;;;1.70;;
16979;SDS011;42288;52.182;21.156;2023-07-20T14:31:09;4.27;;;1.73;;
16979;SDS011;42288;52.182;21.156;2023-07-20T14:33:35;4.10;;;1.80;;
16979;SDS011;42288;52.182;21.156;2023-07-20T14:36:01;3.23;;;1.67;;
16979;SDS011;42288;52.182;21.156;2023-07-20T14:38:30;3.70;;;1.80;;
16979;SDS011;42288;52.182;21.156;2023-07-20T14:40:56;3.57;;;1.70;;
16979;SDS011;42288;52.182;21.156;2023-07-20T14:43:22;4.90;;;1.50;;
16979;SDS011;42288;52.182;21.156;2023-07-20T14:45:48;2.43;;;1.40;;